aviador You're here:

LUKK Decoded Metar

KISHINEV in MOLDOVA
Report Time2017-12-17 00:00:00
UTC Time2017-12-17 00:25:15
Flight Rules mvfr MVFR
Wind330° at 08 kt
W.Decomp.*RWY 26: 3.5 kt HW 7.2 kt RCW
W.Rank330° ranks 1
Current wind is below 330° avg. (8.3)
Visibility9999 m
Phenomena:N/A
Clouds:Broken 015 Hf
Expected CloudBase > 1,200 ft AGL from Temp-Dew spread
Ceiling1,500 ft
Temp05°C (ISA -9)
Dew Point02°C (81% RH)
AAT0.4°C
QNH1011 hPa
Density Alt-545 ft
Elevation400 ft
Report Wrong Elevation
Raw Report
METAR LUKK 170000Z 33008KT 9999 BKN015 05/02 Q1011 R26/D TEMPO BKN008=

Extra information for LUKK:More info

Metar Taf Metar & Taf Last 4 Metars F.Rules Stats Wind Profile Meteogram Temp Stats Airport Information Weather charts Add Link Nearby VenuesMetar ALERT Operation Metar Decoded Social comments